Time;durP1;ratioP1;P1;durP2;ratioP2;P2;SDS_P1;SDS_P2;PMS_P1;PMS_P2;Temp;Humidity;BMP_temperature;BMP_pressure;BME280_temperature;BME280_humidity;BME280_pressure;Samples;Min_cycle;Max_cycle;Signal;HPM_P1;HPM_P2
2022/10/23 00:00:49;;;;;;;4.18;2.20;;;16.80;74.80;;;;;;10432387;28;20107;-67
2022/10/23 00:05:50;;;;;;;2.72;1.63;;;16.80;74.70;;;;;;10463293;28;20514;-67
2022/10/23 00:10:50;;;;;;;2.35;1.60;;;16.80;74.70;;;;;;10450176;28;20104;-67
2022/10/23 00:15:51;;;;;;;3.78;1.85;;;16.80;74.70;;;;;;10448427;28;20147;-68
2022/10/23 00:20:52;;;;;;;2.88;1.88;;;16.80;74.70;;;;;;10448044;28;20060;-68
2022/10/23 00:25:52;;;;;;;3.20;2.08;;;16.80;74.70;;;;;;10448158;28;20107;-68
2022/10/23 00:30:53;;;;;;;5.18;2.20;;;16.80;74.70;;;;;;10431058;28;20071;-68
2022/10/23 00:35:54;;;;;;;3.13;2.20;;;16.80;74.70;;;;;;10447611;28;20103;-67
2022/10/23 00:40:54;;;;;;;3.33;2.22;;;16.80;74.60;;;;;;10447544;28;20480;-67
2022/10/23 00:45:56;;;;;;;4.13;1.90;;;16.80;74.60;;;;;;10446585;28;20490;-68
2022/10/23 00:50:57;;;;;;;3.95;1.75;;;16.80;74.70;;;;;;10447242;28;20426;-68
2022/10/23 00:55:58;;;;;;;6.35;2.67;;;16.80;74.60;;;;;;10448241;28;20024;-67
2022/10/23 01:00:59;;;;;;;3.85;1.60;;;16.80;74.60;;;;;;10461456;28;20040;-68
2022/10/23 01:06:28;;;;;;;3.22;1.70;;;16.80;74.60;;;;;;10458237;28;20040;-68
2022/10/23 01:11:56;;;;;;;4.45;1.80;;;16.80;74.50;;;;;;10445752;28;20535;-68
2022/10/23 01:17:38;;;;;;;3.25;2.50;;;16.80;74.50;;;;;;10430057;28;20488;-68
2022/10/23 01:23:02;;;;;;;3.22;1.90;;;16.80;74.50;;;;;;10438243;28;20432;-68
2022/10/23 01:28:10;;;;;;;3.63;1.98;;;16.70;74.50;;;;;;10446818;28;20029;-68
2022/10/23 01:33:18;;;;;;;3.97;2.05;;;16.80;74.50;;;;;;10459079;28;20372;-68
2022/10/23 01:38:43;;;;;;;3.92;2.03;;;16.70;74.50;;;;;;10430944;28;20108;-68
2022/10/23 01:43:57;;;;;;;8.43;2.42;;;16.70;74.50;;;;;;10454242;28;20037;-68
2022/10/23 01:49:01;;;;;;;3.97;2.38;;;16.70;74.50;;;;;;10460310;28;20608;-68
2022/10/23 01:54:07;;;;;;;3.28;2.00;;;16.70;74.50;;;;;;10428350;28;20029;-68
2022/10/23 01:59:15;;;;;;;3.17;2.13;;;16.70;74.50;;;;;;10428349;28;20032;-67
2022/10/23 02:04:28;;;;;;;3.00;1.70;;;16.70;74.60;;;;;;10441659;28;20025;-68
2022/10/23 02:09:30;;;;;;;4.07;2.30;;;16.70;74.60;;;;;;10442289;28;20085;-68
2022/10/23 02:15:29;;;;;;;5.68;2.40;;;16.70;76.50;;;;;;10444622;28;20033;-68
2022/10/23 02:20:40;;;;;;;3.83;2.10;;;16.80;77.70;;;;;;10423250;28;20109;-68
2022/10/23 02:25:53;;;;;;;3.60;2.38;;;16.80;77.50;;;;;;10449200;28;20075;-68
2022/10/23 02:30:56;;;;;;;3.92;2.78;;;16.80;77.20;;;;;;10451873;28;20024;-68
2022/10/23 02:35:57;;;;;;;3.78;2.25;;;16.80;77.20;;;;;;10453253;28;20380;-68
2022/10/23 02:41:27;;;;;;;2.72;1.90;;;16.80;77.00;;;;;;10431813;28;20024;-68
2022/10/23 02:46:54;;;;;;;3.22;1.98;;;16.80;77.00;;;;;;10445009;28;20025;-67
2022/10/23 02:52:37;;;;;;;2.60;1.80;;;16.80;76.80;;;;;;10444046;28;20031;-67
2022/10/23 02:57:49;;;;;;;4.25;2.88;;;16.70;76.70;;;;;;10457164;28;20029;-67
2022/10/23 03:03:01;;;;;;;3.90;2.00;;;16.80;76.80;;;;;;10431331;28;20399;-67
2022/10/23 03:08:08;;;;;;;2.58;1.70;;;16.70;76.70;;;;;;10455212;28;20025;-67
2022/10/23 03:13:10;;;;;;;4.18;1.75;;;16.70;76.70;;;;;;10450876;28;20075;-68
2022/10/23 03:18:11;;;;;;;3.42;1.98;;;16.70;76.70;;;;;;10450626;28;20021;-67
2022/10/23 03:23:12;;;;;;;4.18;1.75;;;16.70;76.70;;;;;;10451870;28;20119;-68
2022/10/23 03:28:13;;;;;;;2.22;1.73;;;16.70;76.60;;;;;;10450481;28;20473;-67
2022/10/23 03:33:14;;;;;;;2.30;1.63;;;16.70;76.70;;;;;;10450161;28;20112;-67
2022/10/23 03:38:15;;;;;;;2.92;1.85;;;16.70;76.70;;;;;;10433515;28;20024;-67
2022/10/23 03:43:16;;;;;;;4.53;1.88;;;16.70;76.60;;;;;;10451101;28;20053;-67
2022/10/23 03:48:17;;;;;;;3.05;1.70;;;16.70;76.60;;;;;;10432282;28;20391;-67
2022/10/23 03:53:17;;;;;;;1.95;1.45;;;16.70;76.50;;;;;;10448368;28;20484;-68
2022/10/23 03:58:18;;;;;;;3.10;1.60;;;16.70;76.50;;;;;;10447813;28;20019;-67
2022/10/23 04:03:18;;;;;;;2.67;1.95;;;16.70;76.40;;;;;;10445408;28;20101;-67
2022/10/23 04:08:19;;;;;;;2.70;1.52;;;16.70;76.40;;;;;;10448114;28;20110;-67
2022/10/23 04:13:20;;;;;;;3.80;1.92;;;16.70;76.90;;;;;;10449517;28;20047;-68
2022/10/23 04:18:20;;;;;;;2.35;1.50;;;16.70;76.40;;;;;;10430055;28;20162;-67
2022/10/23 04:23:21;;;;;;;2.55;1.50;;;16.70;76.30;;;;;;10448500;28;20421;-69
2022/10/23 04:28:22;;;;;;;3.38;1.75;;;16.70;76.20;;;;;;10447068;28;20092;-67
2022/10/23 04:33:24;;;;;;;3.05;2.35;;;16.60;76.10;;;;;;10448939;28;20025;-67
2022/10/23 04:38:25;;;;;;;2.13;1.42;;;16.60;76.10;;;;;;10446624;28;20021;-66
2022/10/23 04:43:25;;;;;;;2.75;1.75;;;16.60;76.10;;;;;;10446522;28;20496;-68
2022/10/23 04:48:26;;;;;;;3.45;1.88;;;16.60;76.00;;;;;;10443969;28;20025;-67
2022/10/23 04:53:28;;;;;;;3.15;2.13;;;16.60;76.10;;;;;;10445840;28;20107;-67
2022/10/23 04:58:29;;;;;;;2.63;1.90;;;16.60;76.10;;;;;;10446892;28;20020;-68
2022/10/23 05:03:29;;;;;;;2.58;2.17;;;16.60;76.10;;;;;;10447066;28;20040;-67
2022/10/23 05:08:30;;;;;;;3.10;2.80;;;16.60;76.10;;;;;;10447398;28;20163;-67
2022/10/23 05:13:31;;;;;;;4.05;3.65;;;16.60;76.10;;;;;;10447165;28;20480;-68
2022/10/23 05:18:37;;;;;;;3.70;3.40;;;16.60;76.10;;;;;;10444859;28;20029;-67
2022/10/23 05:23:41;;;;;;;8.27;3.60;;;16.60;76.10;;;;;;10436576;28;20127;-63
2022/10/23 05:28:41;;;;;;;21.45;15.43;;;16.70;76.90;;;;;;10441998;28;20656;-65
2022/10/23 05:33:42;;;;;;;22.63;15.00;;;16.90;76.90;;;;;;10446474;28;20099;-63
2022/10/23 05:38:44;;;;;;;16.98;15.13;;;17.00;76.70;;;;;;10445068;28;20487;-62
2022/10/23 05:43:45;;;;;;;21.92;13.85;;;17.00;77.30;;;;;;10462321;28;20074;-64
2022/10/23 05:48:50;;;;;;;17.95;14.75;;;17.10;77.10;;;;;;10459132;28;20029;-66
2022/10/23 05:53:53;;;;;;;18.40;15.77;;;17.10;77.50;;;;;;10427393;28;20028;-66
2022/10/23 05:58:54;;;;;;;22.02;16.45;;;17.10;77.10;;;;;;10441257;28;20033;-64
2022/10/23 06:03:55;;;;;;;27.42;16.52;;;17.10;77.20;;;;;;10449485;28;20029;-68
2022/10/23 06:08:55;;;;;;;20.55;18.25;;;17.00;77.50;;;;;;10457946;28;20012;-66
2022/10/23 06:13:56;;;;;;;23.52;21.35;;;16.90;77.50;;;;;;10444719;28;20025;-65
2022/10/23 06:18:57;;;;;;;24.20;22.00;;;16.80;77.70;;;;;;10443727;28;20017;-67
2022/10/23 06:23:57;;;;;;;23.25;21.05;;;16.80;77.50;;;;;;10441061;28;20029;-67
2022/10/23 06:28:59;;;;;;;26.85;20.50;;;16.70;77.70;;;;;;10419348;28;20009;-66
2022/10/23 06:33:59;;;;;;;22.27;20.10;;;16.70;77.80;;;;;;10445197;28;20040;-67
2022/10/23 06:39:00;;;;;;;22.02;20.25;;;16.70;77.70;;;;;;10448033;28;20017;-66
2022/10/23 06:44:01;;;;;;;22.20;20.33;;;16.70;77.60;;;;;;10446499;28;20120;-66
2022/10/23 06:49:02;;;;;;;22.48;20.08;;;16.60;77.50;;;;;;10450468;28;20100;-67
2022/10/23 06:54:03;;;;;;;20.92;19.33;;;16.60;77.50;;;;;;10463809;28;20025;-67
2022/10/23 06:59:06;;;;;;;21.33;19.52;;;16.60;77.40;;;;;;10452703;28;20021;-67
2022/10/23 07:04:07;;;;;;;20.67;18.95;;;16.60;77.40;;;;;;10452218;28;20064;-66
2022/10/23 07:09:08;;;;;;;19.98;18.42;;;16.60;77.30;;;;;;10449360;28;20100;-67
2022/10/23 07:14:09;;;;;;;21.17;19.17;;;16.60;77.30;;;;;;10448490;28;20021;-67
2022/10/23 07:19:09;;;;;;;20.23;18.75;;;16.60;77.20;;;;;;10447701;28;20102;-67
2022/10/23 07:24:10;;;;;;;19.83;18.02;;;16.60;77.20;;;;;;10448920;28;20083;-66
2022/10/23 07:29:11;;;;;;;20.25;18.35;;;16.60;77.20;;;;;;10432237;28;20043;-67
2022/10/23 07:34:12;;;;;;;20.58;18.70;;;16.60;77.10;;;;;;10449922;28;20115;-66
2022/10/23 07:39:13;;;;;;;19.73;17.98;;;16.60;77.60;;;;;;10450021;28;20108;-66
2022/10/23 07:44:14;;;;;;;19.33;17.77;;;16.60;77.00;;;;;;10449569;28;20053;-66
2022/10/23 07:49:14;;;;;;;17.13;15.82;;;16.50;76.80;;;;;;10449412;28;20017;-67
2022/10/23 07:54:15;;;;;;;17.75;16.08;;;16.60;76.80;;;;;;10465633;28;20024;-65
2022/10/23 07:59:16;;;;;;;20.20;17.00;;;16.60;76.80;;;;;;10432545;28;20113;-64
2022/10/23 08:04:16;;;;;;;24.42;17.58;;;16.80;76.80;;;;;;10461693;28;20033;-68
2022/10/23 08:09:17;;;;;;;18.20;15.57;;;16.80;76.60;;;;;;10453873;28;20112;-65
2022/10/23 08:14:17;;;;;;;30.63;16.27;;;16.80;76.80;;;;;;10448494;28;20163;-65
2022/10/23 08:19:18;;;;;;;21.20;15.35;;;16.70;77.40;;;;;;10446469;28;20113;-63
2022/10/23 08:24:19;;;;;;;21.08;14.93;;;16.70;77.80;;;;;;10448436;28;20025;-64
2022/10/23 08:29:20;;;;;;;21.23;13.93;;;16.80;77.40;;;;;;10446399;28;20031;-65
2022/10/23 08:34:21;;;;;;;21.20;14.32;;;16.70;77.50;;;;;;10446709;28;20032;-65
2022/10/23 08:39:22;;;;;;;25.70;14.38;;;16.70;77.70;;;;;;10447212;28;20034;-66
2022/10/23 08:44:51;;;;;;;26.02;13.35;;;16.70;77.90;;;;;;10430237;28;20633;-69
2022/10/23 08:50:04;;;;;;;30.90;13.65;;;16.70;77.90;;;;;;10446871;28;20044;-69
2022/10/23 08:55:26;;;;;;;21.90;12.95;;;16.90;77.80;;;;;;10444188;28;20029;-67
2022/10/23 09:00:27;;;;;;;28.13;13.15;;;16.90;77.80;;;;;;10444961;28;20075;-68
2022/10/23 09:06:07;;;;;;;24.08;12.90;;;16.90;77.90;;;;;;10446597;28;20037;-68
2022/10/23 09:11:26;;;;;;;34.55;13.10;;;16.90;78.00;;;;;;10459740;28;20195;-69
2022/10/23 09:17:07;;;;;;;33.28;11.32;;;16.90;78.00;;;;;;10429582;28;20082;-69
2022/10/23 09:22:09;;;;;;;25.85;10.77;;;16.90;77.70;;;;;;10445382;28;20108;-70
2022/10/23 09:27:17;;;;;;;29.58;12.38;;;16.90;78.40;;;;;;10428717;28;21098;-70
2022/10/23 09:32:19;;;;;;;31.50;11.88;;;17.00;77.80;;;;;;10444645;28;20067;-69
2022/10/23 09:37:27;;;;;;;26.90;11.02;;;17.10;77.60;;;;;;10446302;28;20029;-70
2022/10/23 09:42:28;;;;;;;19.85;9.68;;;17.10;77.20;;;;;;10444574;28;20048;-69
2022/10/23 09:47:28;;;;;;;25.65;11.25;;;17.20;77.60;;;;;;10428018;28;20478;-69
2022/10/23 09:52:36;;;;;;;23.92;9.65;;;17.40;77.50;;;;;;10443966;28;20021;-67
2022/10/23 09:57:42;;;;;;;20.35;10.70;;;17.50;77.00;;;;;;10418002;28;20047;-68
2022/10/23 10:03:18;;;;;;;27.85;13.27;;;17.50;77.30;;;;;;10446963;28;20682;-68
2022/10/23 10:08:36;;;;;;;27.67;13.70;;;17.50;77.60;;;;;;10452391;28;20476;-69
2022/10/23 10:14:24;;;;;;;36.40;13.48;;;17.50;78.00;;;;;;10444374;28;20013;-70
2022/10/23 10:19:47;;;;;;;42.28;15.05;;;17.60;78.20;;;;;;10452248;28;20686;-66
2022/10/23 10:25:12;;;;;;;39.60;14.55;;;17.80;78.10;;;;;;10458051;28;20171;-68
2022/10/23 10:30:18;;;;;;;36.20;13.23;;;17.80;78.20;;;;;;10436885;28;20049;-67
2022/10/23 10:35:27;;;;;;;36.15;13.30;;;18.00;77.70;;;;;;10450960;28;20021;-66
2022/10/23 10:40:47;;;;;;;29.60;11.05;;;18.00;77.20;;;;;;10451889;28;20127;-70
2022/10/23 10:46:16;;;;;;;;;;;17.70;78.20;;;;;;10416516;28;20057;-68
2022/10/23 10:51:32;;;;;;;33.08;11.38;;;17.70;77.80;;;;;;10460852;28;19916;-69
2022/10/23 10:56:38;;;;;;;24.05;10.82;;;17.60;78.60;;;;;;10461119;28;20052;-71
2022/10/23 11:01:48;;;;;;;29.85;11.18;;;17.60;78.20;;;;;;10434668;28;20061;-68
2022/10/23 11:06:52;;;;;;;29.92;10.70;;;17.70;77.80;;;;;;10455037;28;20092;-68
2022/10/23 11:11:53;;;;;;;26.33;11.52;;;17.70;77.70;;;;;;10451946;28;20551;-70
2022/10/23 11:17:23;;;;;;;29.70;12.02;;;17.50;78.20;;;;;;10451030;28;20079;-70
2022/10/23 11:22:46;;;;;;;16.25;9.25;;;17.40;78.40;;;;;;10448785;28;20025;-70
2022/10/23 11:27:56;;;;;;;21.40;9.57;;;17.30;78.50;;;;;;10462732;28;20033;-69
2022/10/23 11:33:35;;;;;;;23.52;9.60;;;17.30;78.60;;;;;;10456807;28;20544;-70
2022/10/23 11:38:39;;;;;;;22.13;10.10;;;17.20;78.60;;;;;;10451266;28;20460;-70
2022/10/23 11:43:51;;;;;;;18.75;7.40;;;17.20;78.50;;;;;;10449687;28;20052;-68
2022/10/23 11:48:54;;;;;;;25.02;8.63;;;17.20;78.40;;;;;;10451007;28;20032;-70
2022/10/23 11:54:14;;;;;;;13.25;7.03;;;17.20;78.40;;;;;;10432715;28;20052;-70
2022/10/23 11:59:55;;;;;;;28.42;8.77;;;17.20;78.30;;;;;;10462293;28;20112;-69
2022/10/23 12:05:02;;;;;;;23.92;8.35;;;17.20;78.20;;;;;;10449601;28;20040;-72
2022/10/23 12:10:17;;;;;;;22.48;7.82;;;17.30;78.10;;;;;;10448603;28;20013;-71
2022/10/23 12:15:21;;;;;;;30.33;7.63;;;17.30;78.50;;;;;;10461225;28;20013;-70
2022/10/23 12:20:37;;;;;;;65.43;11.93;;;17.30;77.90;;;;;;10448241;28;20381;-73
2022/10/23 12:25:54;;;;;;;37.38;8.70;;;17.40;78.40;;;;;;10444301;28;20028;-68
2022/10/23 12:31:41;;;;;;;33.45;9.32;;;17.50;78.50;;;;;;10446453;28;20017;-72
2022/10/23 12:37:32;;;;;;;57.67;10.85;;;17.40;78.20;;;;;;10445336;28;20029;-71
2022/10/23 12:42:34;;;;;;;44.00;10.75;;;17.30;78.70;;;;;;10467508;28;20575;-70
2022/10/23 12:47:35;;;;;;;31.63;9.65;;;17.20;78.90;;;;;;10452988;28;20024;-68
2022/10/23 12:52:38;;;;;;;31.05;7.18;;;17.20;78.70;;;;;;10451874;28;20753;-71
2022/10/23 12:57:43;;;;;;;29.63;7.38;;;17.20;78.60;;;;;;10429190;28;20021;-70
2022/10/23 13:02:43;;;;;;;24.40;8.10;;;17.20;78.50;;;;;;10464097;28;20393;-71
2022/10/23 13:07:47;;;;;;;27.40;7.72;;;17.10;78.40;;;;;;10462410;28;20685;-71
2022/10/23 13:13:05;;;;;;;21.17;5.78;;;17.20;78.50;;;;;;10457786;28;20025;-71
2022/10/23 13:18:08;;;;;;;22.13;7.18;;;17.10;78.30;;;;;;10458423;28;20718;-70
2022/10/23 13:23:30;;;;;;;18.65;7.18;;;17.10;78.90;;;;;;10444243;28;20033;-71
2022/10/23 13:28:44;;;;;;;17.00;5.85;;;17.10;78.30;;;;;;10445684;28;20041;-71
2022/10/23 13:33:58;;;;;;;17.35;5.75;;;17.10;78.40;;;;;;10432167;28;20392;-70
2022/10/23 13:39:08;;;;;;;17.92;6.25;;;17.10;78.30;;;;;;10446928;28;20078;-72
2022/10/23 13:44:16;;;;;;;12.52;5.22;;;17.10;78.30;;;;;;10445434;28;20057;-71
2022/10/23 13:49:17;;;;;;;12.48;5.80;;;17.10;78.30;;;;;;10445027;28;20017;-73
2022/10/23 13:54:22;;;;;;;17.88;5.28;;;17.10;78.30;;;;;;10444956;28;20032;-71
2022/10/23 13:59:23;;;;;;;17.67;5.38;;;17.10;78.30;;;;;;10444913;28;20071;-71
2022/10/23 14:04:24;;;;;;;13.27;5.25;;;17.10;78.20;;;;;;10449605;28;20025;-71
2022/10/23 14:09:25;;;;;;;10.32;4.70;;;17.00;78.20;;;;;;10446320;28;20104;-72
2022/10/23 14:14:26;;;;;;;12.60;4.30;;;17.10;78.20;;;;;;10428894;28;20491;-69
2022/10/23 14:19:26;;;;;;;13.27;4.78;;;17.00;78.20;;;;;;10428253;28;20104;-71
2022/10/23 14:24:27;;;;;;;13.38;5.65;;;17.00;78.10;;;;;;10444549;28;20121;-71
2022/10/23 14:29:28;;;;;;;11.57;4.68;;;17.00;78.10;;;;;;10445988;28;20404;-71
2022/10/23 14:34:28;;;;;;;12.05;5.45;;;17.00;78.00;;;;;;10428083;28;20171;-71
2022/10/23 14:39:29;;;;;;;11.82;3.75;;;17.00;78.00;;;;;;10457881;28;20031;-71
2022/10/23 14:44:30;;;;;;;10.38;3.97;;;17.00;78.00;;;;;;10444233;28;20045;-71
2022/10/23 14:49:32;;;;;;;13.80;5.55;;;17.00;78.00;;;;;;10444134;28;20732;-71
2022/10/23 14:54:35;;;;;;;13.55;3.67;;;17.00;77.90;;;;;;10457638;28;20013;-71
2022/10/23 14:59:35;;;;;;;12.75;4.00;;;17.00;77.90;;;;;;10445443;28;20022;-71
2022/10/23 15:04:37;;;;;;;12.20;4.05;;;17.00;77.80;;;;;;10462984;28;20134;-71
2022/10/23 15:09:38;;;;;;;8.10;2.97;;;17.00;77.80;;;;;;10452636;28;20024;-71
2022/10/23 15:14:39;;;;;;;7.30;2.80;;;17.00;77.80;;;;;;10434784;28;20021;-72
2022/10/23 15:19:39;;;;;;;10.75;5.45;;;17.00;77.80;;;;;;10433483;28;20025;-70
2022/10/23 15:24:40;;;;;;;13.27;4.60;;;17.00;77.70;;;;;;10434605;28;20021;-70
2022/10/23 15:29:41;;;;;;;16.67;4.93;;;17.00;77.90;;;;;;10431205;28;20100;-70
2022/10/23 15:34:42;;;;;;;8.93;3.88;;;17.00;77.80;;;;;;10452034;28;20024;-68
2022/10/23 15:39:43;;;;;;;12.50;4.05;;;17.00;77.80;;;;;;10451873;28;20021;-71
2022/10/23 15:44:44;;;;;;;17.33;4.82;;;17.00;78.00;;;;;;10450750;28;20416;-72
2022/10/23 15:49:45;;;;;;;21.98;6.60;;;16.90;77.90;;;;;;10432076;28;20021;-72
2022/10/23 15:54:45;;;;;;;17.55;4.13;;;17.00;78.20;;;;;;10461146;28;20109;-71
2022/10/23 15:59:46;;;;;;;17.88;6.57;;;17.00;78.30;;;;;;10449151;28;20057;-69
2022/10/23 16:04:47;;;;;;;56.70;22.98;;;17.20;78.70;;;;;;10467775;28;20066;-71
2022/10/23 16:09:48;;;;;;;28.48;13.68;;;17.40;78.50;;;;;;10431949;28;20087;-70
2022/10/23 16:14:49;;;;;;;18.55;8.93;;;17.40;78.10;;;;;;10431230;28;20020;-70
2022/10/23 16:19:49;;;;;;;31.25;10.18;;;17.50;78.00;;;;;;10448755;28;20013;-70
2022/10/23 16:24:50;;;;;;;39.90;16.60;;;17.60;77.80;;;;;;10454423;28;20129;-71
2022/10/23 16:29:51;;;;;;;33.38;13.02;;;17.70;78.40;;;;;;10449484;28;20778;-73
2022/10/23 16:34:51;;;;;;;27.02;10.13;;;17.90;82.50;;;;;;10431289;28;20021;-71
2022/10/23 16:39:52;;;;;;;37.95;11.05;;;17.90;78.80;;;;;;10449202;28;20056;-65
2022/10/23 16:44:53;;;;;;;42.95;11.82;;;17.80;79.80;;;;;;10459654;28;20048;-64
2022/10/23 16:49:53;;;;;;;35.03;9.80;;;17.90;79.40;;;;;;10430622;28;20025;-66
2022/10/23 16:54:54;;;;;;;57.70;13.35;;;17.80;79.50;;;;;;10447104;28;20052;-65
2022/10/23 16:59:55;;;;;;;43.90;12.65;;;17.80;79.30;;;;;;10446555;28;20057;-69
2022/10/23 17:04:55;;;;;;;50.78;11.85;;;17.80;79.50;;;;;;10464603;28;20124;-64
2022/10/23 17:09:56;;;;;;;40.65;12.05;;;17.80;79.20;;;;;;10455411;28;20123;-66
2022/10/23 17:14:57;;;;;;;43.83;12.40;;;17.80;79.60;;;;;;10445509;28;20120;-70
2022/10/23 17:19:57;;;;;;;37.05;11.50;;;17.60;79.60;;;;;;10443440;28;20474;-70
2022/10/23 17:24:58;;;;;;;41.58;9.90;;;17.50;79.80;;;;;;10445252;28;20131;-70
2022/10/23 17:29:59;;;;;;;33.10;9.45;;;17.40;79.70;;;;;;10445386;28;20439;-70
2022/10/23 17:34:59;;;;;;;33.15;9.98;;;17.40;79.70;;;;;;10442909;28;20515;-69
2022/10/23 17:40:01;;;;;;;32.15;10.15;;;17.40;79.70;;;;;;10428476;28;20112;-68
2022/10/23 17:45:02;;;;;;;24.58;9.77;;;17.30;79.50;;;;;;10429019;28;20043;-67
2022/10/23 17:50:03;;;;;;;33.13;10.73;;;17.30;79.50;;;;;;10428465;28;20049;-65
2022/10/23 17:55:04;;;;;;;40.35;11.45;;;17.40;79.50;;;;;;10443141;28;20021;-67
2022/10/23 18:00:06;;;;;;;29.67;9.52;;;17.50;79.40;;;;;;10417594;28;20057;-66
2022/10/23 18:05:07;;;;;;;31.02;12.07;;;17.60;79.30;;;;;;10448346;28;20057;-68
2022/10/23 18:10:08;;;;;;;23.92;10.63;;;17.60;79.20;;;;;;10444814;28;20049;-67
2022/10/23 18:15:09;;;;;;;29.75;9.05;;;17.50;79.20;;;;;;10457972;28;20075;-72
2022/10/23 18:20:10;;;;;;;27.20;11.05;;;17.50;79.30;;;;;;10454340;28;20040;-72
2022/10/23 18:25:11;;;;;;;26.58;8.13;;;17.40;79.30;;;;;;10448266;28;20040;-71
2022/10/23 18:30:12;;;;;;;26.63;8.75;;;17.40;79.40;;;;;;10444567;28;20021;-70
2022/10/23 18:35:13;;;;;;;22.73;8.30;;;17.30;79.30;;;;;;10457914;28;20491;-69
2022/10/23 18:40:14;;;;;;;15.80;8.32;;;17.30;79.30;;;;;;10451332;28;20080;-71
2022/10/23 18:45:15;;;;;;;21.80;9.25;;;17.30;79.30;;;;;;10452114;28;20052;-71
2022/10/23 18:50:16;;;;;;;20.70;8.93;;;17.30;79.30;;;;;;10453031;28;20019;-70
2022/10/23 18:55:17;;;;;;;21.85;8.25;;;17.30;79.20;;;;;;10465203;28;20025;-70
2022/10/23 19:00:18;;;;;;;19.75;8.98;;;17.30;79.20;;;;;;10451428;28;20032;-71
2022/10/23 19:05:19;;;;;;;23.65;8.57;;;17.30;79.10;;;;;;10462702;28;20040;-72
2022/10/23 19:10:20;;;;;;;16.60;7.85;;;17.30;79.10;;;;;;10456885;28;20078;-71
2022/10/23 19:15:21;;;;;;;15.05;6.00;;;17.20;79.00;;;;;;10450321;28;20033;-68
2022/10/23 19:20:22;;;;;;;16.50;7.25;;;17.20;79.00;;;;;;10448071;28;20036;-72
2022/10/23 19:25:28;;;;;;;17.90;7.35;;;17.20;79.00;;;;;;10464319;28;20044;-70
2022/10/23 19:30:29;;;;;;;15.85;8.07;;;17.20;78.90;;;;;;10450431;28;20020;-71
2022/10/23 19:35:30;;;;;;;13.68;7.30;;;17.20;78.90;;;;;;10450380;28;20021;-64
2022/10/23 19:40:30;;;;;;;20.63;7.55;;;17.20;78.90;;;;;;10447807;28;20013;-67
2022/10/23 19:45:31;;;;;;;13.80;7.32;;;17.30;78.80;;;;;;10448936;28;20127;-66
2022/10/23 19:50:32;;;;;;;12.10;6.13;;;17.20;78.80;;;;;;10447698;28;20029;-66
2022/10/23 19:55:33;;;;;;;11.35;6.13;;;17.20;78.80;;;;;;10447567;28;20024;-66
2022/10/23 20:00:35;;;;;;;22.13;6.10;;;17.20;78.80;;;;;;10446488;28;20033;-66
2022/10/23 20:05:35;;;;;;;12.95;5.47;;;17.20;78.80;;;;;;10447902;28;20036;-67
2022/10/23 20:10:45;;;;;;;15.27;6.20;;;17.20;78.80;;;;;;10446888;28;20047;-67
2022/10/23 20:15:45;;;;;;;15.48;5.68;;;17.20;78.70;;;;;;10447986;28;20029;-67
2022/10/23 20:20:46;;;;;;;14.95;5.88;;;17.20;78.70;;;;;;10448223;28;20052;-67
2022/10/23 20:25:47;;;;;;;15.52;5.78;;;17.20;78.70;;;;;;10449042;28;20124;-67
2022/10/23 20:30:47;;;;;;;15.18;5.65;;;17.10;78.70;;;;;;10431159;28;20044;-67
2022/10/23 20:35:48;;;;;;;12.30;5.38;;;17.20;78.70;;;;;;10449190;28;20031;-67
2022/10/23 20:40:49;;;;;;;13.50;5.43;;;17.10;78.60;;;;;;10460698;28;20049;-67
2022/10/23 20:45:49;;;;;;;14.32;5.35;;;17.10;78.60;;;;;;10447185;28;20116;-68
2022/10/23 20:50:50;;;;;;;13.80;4.85;;;17.20;79.20;;;;;;10448519;28;20048;-67
2022/10/23 20:55:51;;;;;;;8.90;5.30;;;17.10;78.50;;;;;;10430113;28;20037;-66
2022/10/23 21:00:51;;;;;;;11.02;5.13;;;17.20;78.60;;;;;;10447103;28;20110;-66
2022/10/23 21:05:52;;;;;;;10.10;4.57;;;17.10;78.50;;;;;;10462506;28;20111;-67
2022/10/23 21:10:53;;;;;;;9.82;4.18;;;17.10;78.50;;;;;;10446825;28;20013;-68
2022/10/23 21:15:54;;;;;;;12.98;5.07;;;17.10;78.40;;;;;;10447552;28;20803;-67
2022/10/23 21:20:55;;;;;;;7.65;4.15;;;17.10;78.50;;;;;;10429365;28;20017;-67
2022/10/23 21:25:55;;;;;;;13.63;4.80;;;17.10;78.40;;;;;;10445985;28;20444;-67
2022/10/23 21:31:06;;;;;;;10.73;4.35;;;17.10;78.40;;;;;;10447231;28;20106;-68
2022/10/23 21:36:09;;;;;;;7.85;4.10;;;17.10;78.40;;;;;;10445346;28;20036;-67
2022/10/23 21:41:17;;;;;;;9.15;5.03;;;17.10;78.30;;;;;;10445407;28;20025;-67
2022/10/23 21:46:18;;;;;;;8.73;4.47;;;17.10;78.30;;;;;;10445011;28;20035;-68
2022/10/23 21:51:34;;;;;;;8.43;3.95;;;17.10;78.30;;;;;;10446791;28;20025;-67
2022/10/23 21:56:47;;;;;;;8.35;4.07;;;17.10;78.30;;;;;;10429504;28;20685;-67
2022/10/23 22:01:48;;;;;;;10.15;4.28;;;17.10;78.20;;;;;;10444938;28;20021;-68
2022/10/23 22:06:49;;;;;;;5.18;2.92;;;17.10;78.10;;;;;;10447973;28;20025;-67
2022/10/23 22:11:51;;;;;;;7.65;3.58;;;17.10;78.10;;;;;;10446849;28;20017;-67
2022/10/23 22:16:53;;;;;;;6.53;3.75;;;17.10;78.00;;;;;;10436864;28;20025;-67
2022/10/23 22:21:54;;;;;;;6.82;2.90;;;17.10;78.10;;;;;;10453409;28;20028;-67
2022/10/23 22:26:55;;;;;;;5.70;3.28;;;17.10;78.10;;;;;;10453022;28;20506;-67
2022/10/23 22:31:57;;;;;;;6.85;3.25;;;17.10;78.10;;;;;;10466722;28;20025;-66
2022/10/23 22:36:58;;;;;;;7.47;3.35;;;17.10;78.00;;;;;;10452278;28;20472;-67
2022/10/23 22:41:58;;;;;;;7.20;3.80;;;17.10;78.00;;;;;;10452357;28;20048;-67
2022/10/23 22:46:59;;;;;;;4.93;3.30;;;17.10;78.00;;;;;;10453088;28;20438;-67
2022/10/23 22:51:59;;;;;;;5.60;2.60;;;17.10;77.90;;;;;;10434920;28;20051;-68
2022/10/23 22:57:00;;;;;;;8.40;3.50;;;17.10;77.90;;;;;;10452718;28;20100;-67
2022/10/23 23:02:01;;;;;;;6.13;2.53;;;17.10;77.90;;;;;;10434604;28;20029;-67
2022/10/23 23:07:01;;;;;;;6.75;3.53;;;17.10;77.90;;;;;;10453169;28;20120;-67
2022/10/23 23:12:03;;;;;;;4.60;2.35;;;17.10;77.90;;;;;;10452367;28;20484;-67
2022/10/23 23:17:05;;;;;;;5.45;3.28;;;17.10;77.90;;;;;;10434009;28;20024;-67
2022/10/23 23:22:05;;;;;;;6.13;2.40;;;17.10;77.90;;;;;;10450453;28;20079;-67
2022/10/23 23:27:06;;;;;;;4.93;2.60;;;17.10;77.80;;;;;;10449764;28;20095;-67
2022/10/23 23:32:07;;;;;;;5.15;2.45;;;17.10;77.80;;;;;;10452098;28;20020;-67
2022/10/23 23:37:07;;;;;;;7.30;2.13;;;17.10;77.80;;;;;;10463106;28;20049;-67
2022/10/23 23:42:08;;;;;;;4.75;2.30;;;17.10;77.70;;;;;;10433194;28;20076;-66
2022/10/23 23:47:09;;;;;;;5.28;2.75;;;17.10;77.70;;;;;;10463980;28;20060;-66
2022/10/23 23:52:09;;;;;;;5.80;2.95;;;17.10;77.70;;;;;;10463057;28;20048;-67
2022/10/23 23:57:11;;;;;;;4.72;2.92;;;17.10;77.70;;;;;;10455223;28;20037;-67
